sensor_id;sensor_type;location;lat;lon;timestamp;pressure;altitude;pressure_sealevel;temperature;humidity
62057;BME280;48016;50.284;18.860;2023-06-22T00:01:56;98311.20;;;20.26;79.11
62057;BME280;48016;50.284;18.860;2023-06-22T00:04:22;98310.00;;;20.27;79.13
62057;BME280;48016;50.284;18.860;2023-06-22T00:06:48;98311.30;;;20.26;79.13
62057;BME280;48016;50.284;18.860;2023-06-22T00:09:14;98305.91;;;20.24;79.16
62057;BME280;48016;50.284;18.860;2023-06-22T00:11:39;98313.80;;;20.21;79.36
62057;BME280;48016;50.284;18.860;2023-06-22T00:14:05;98320.27;;;20.19;79.32
62057;BME280;48016;50.284;18.860;2023-06-22T00:16:32;98324.88;;;20.17;79.48
62057;BME280;48016;50.284;18.860;2023-06-22T00:18:58;98330.23;;;20.14;79.37
62057;BME280;48016;50.284;18.860;2023-06-22T00:21:26;98327.49;;;20.13;79.50
62057;BME280;48016;50.284;18.860;2023-06-22T00:23:52;98325.88;;;20.11;79.78
62057;BME280;48016;50.284;18.860;2023-06-22T00:26:19;98330.05;;;20.09;79.79
62057;BME280;48016;50.284;18.860;2023-06-22T00:28:45;98332.05;;;20.10;79.69
62057;BME280;48016;50.284;18.860;2023-06-22T00:31:10;98326.45;;;20.09;79.82
62057;BME280;48016;50.284;18.860;2023-06-22T00:33:36;98330.77;;;20.09;79.81
62057;BME280;48016;50.284;18.860;2023-06-22T00:36:02;98324.05;;;20.08;79.90
62057;BME280;48016;50.284;18.860;2023-06-22T00:38:28;98318.80;;;20.07;79.67
62057;BME280;48016;50.284;18.860;2023-06-22T00:40:54;98317.21;;;20.05;79.79
62057;BME280;48016;50.284;18.860;2023-06-22T00:43:20;98323.27;;;20.02;79.87
62057;BME280;48016;50.284;18.860;2023-06-22T00:45:46;98324.11;;;20.01;79.97
62057;BME280;48016;50.284;18.860;2023-06-22T00:48:13;98323.48;;;20.00;80.18
62057;BME280;48016;50.284;18.860;2023-06-22T00:50:40;98323.25;;;19.97;80.18
62057;BME280;48016;50.284;18.860;2023-06-22T00:53:07;98322.56;;;19.94;80.20
62057;BME280;48016;50.284;18.860;2023-06-22T00:55:39;98330.16;;;19.94;80.21
62057;BME280;48016;50.284;18.860;2023-06-22T00:58:09;98338.54;;;19.94;80.30
62057;BME280;48016;50.284;18.860;2023-06-22T01:00:36;98339.64;;;19.94;80.14
62057;BME280;48016;50.284;18.860;2023-06-22T01:03:03;98332.64;;;19.89;80.32
62057;BME280;48016;50.284;18.860;2023-06-22T01:05:31;98321.54;;;19.87;80.14
62057;BME280;48016;50.284;18.860;2023-06-22T01:08:46;98322.73;;;19.86;79.90
62057;BME280;48016;50.284;18.860;2023-06-22T01:11:16;98314.63;;;19.84;80.23
62057;BME280;48016;50.284;18.860;2023-06-22T01:13:50;98312.86;;;19.83;80.31
62057;BME280;48016;50.284;18.860;2023-06-22T01:16:23;98319.77;;;19.83;80.37
62057;BME280;48016;50.284;18.860;2023-06-22T01:18:52;98321.30;;;19.81;80.32
62057;BME280;48016;50.284;18.860;2023-06-22T01:21:21;98327.45;;;19.79;80.38
62057;BME280;48016;50.284;18.860;2023-06-22T01:24:11;98332.15;;;19.77;80.42
62057;BME280;48016;50.284;18.860;2023-06-22T01:29:14;98331.85;;;19.73;80.57
62057;BME280;48016;50.284;18.860;2023-06-22T01:31:42;98331.16;;;19.73;80.64
62057;BME280;48016;50.284;18.860;2023-06-22T01:34:09;98331.44;;;19.74;80.58
62057;BME280;48016;50.284;18.860;2023-06-22T01:36:37;98329.91;;;19.73;80.47
62057;BME280;48016;50.284;18.860;2023-06-22T01:39:05;98333.87;;;19.71;80.72
62057;BME280;48016;50.284;18.860;2023-06-22T01:41:34;98335.64;;;19.70;80.59
62057;BME280;48016;50.284;18.860;2023-06-22T01:44:03;98335.65;;;19.68;80.60
62057;BME280;48016;50.284;18.860;2023-06-22T01:46:31;98336.95;;;19.65;80.60
62057;BME280;48016;50.284;18.860;2023-06-22T01:48:57;98330.80;;;19.63;80.64
62057;BME280;48016;50.284;18.860;2023-06-22T01:51:24;98331.47;;;19.61;80.57
62057;BME280;48016;50.284;18.860;2023-06-22T01:53:49;98332.42;;;19.60;80.57
62057;BME280;48016;50.284;18.860;2023-06-22T01:56:16;98332.46;;;19.58;80.57
62057;BME280;48016;50.284;18.860;2023-06-22T01:58:50;98331.16;;;19.55;80.76
62057;BME280;48016;50.284;18.860;2023-06-22T02:01:20;98327.77;;;19.53;80.87
62057;BME280;48016;50.284;18.860;2023-06-22T02:04:06;98329.60;;;19.52;80.84
62057;BME280;48016;50.284;18.860;2023-06-22T02:06:37;98330.95;;;19.48;80.81
62057;BME280;48016;50.284;18.860;2023-06-22T02:09:08;98335.58;;;19.45;80.89
62057;BME280;48016;50.284;18.860;2023-06-22T02:11:36;98335.02;;;19.41;81.07
62057;BME280;48016;50.284;18.860;2023-06-22T02:14:02;98342.61;;;19.40;81.13
62057;BME280;48016;50.284;18.860;2023-06-22T02:16:31;98345.14;;;19.38;81.35
62057;BME280;48016;50.284;18.860;2023-06-22T02:19:00;98348.61;;;19.37;81.05
62057;BME280;48016;50.284;18.860;2023-06-22T02:21:29;98351.30;;;19.32;81.23
62057;BME280;48016;50.284;18.860;2023-06-22T02:23:56;98348.15;;;19.29;81.25
62057;BME280;48016;50.284;18.860;2023-06-22T02:26:24;98349.84;;;19.27;81.36
62057;BME280;48016;50.284;18.860;2023-06-22T02:28:50;98351.23;;;19.26;81.37
62057;BME280;48016;50.284;18.860;2023-06-22T02:31:16;98354.36;;;19.26;81.46
62057;BME280;48016;50.284;18.860;2023-06-22T02:33:42;98363.66;;;19.27;81.41
62057;BME280;48016;50.284;18.860;2023-06-22T02:36:09;98362.94;;;19.28;81.61
62057;BME280;48016;50.284;18.860;2023-06-22T02:38:41;98368.60;;;19.27;81.52
62057;BME280;48016;50.284;18.860;2023-06-22T02:41:11;98372.52;;;19.25;81.63
62057;BME280;48016;50.284;18.860;2023-06-22T02:43:38;98380.40;;;19.23;81.75
62057;BME280;48016;50.284;18.860;2023-06-22T02:46:04;98378.45;;;19.22;81.82
62057;BME280;48016;50.284;18.860;2023-06-22T02:48:30;98381.96;;;19.22;81.91
62057;BME280;48016;50.284;18.860;2023-06-22T02:50:56;98383.86;;;19.21;82.17
62057;BME280;48016;50.284;18.860;2023-06-22T02:53:22;98383.91;;;19.22;82.14
62057;BME280;48016;50.284;18.860;2023-06-22T02:55:48;98385.16;;;19.22;82.07
62057;BME280;48016;50.284;18.860;2023-06-22T02:58:13;98387.20;;;19.23;82.13
62057;BME280;48016;50.284;18.860;2023-06-22T03:00:39;98390.26;;;19.24;82.13
62057;BME280;48016;50.284;18.860;2023-06-22T03:03:05;98394.55;;;19.26;82.14
62057;BME280;48016;50.284;18.860;2023-06-22T03:05:31;98395.30;;;19.27;82.34
62057;BME280;48016;50.284;18.860;2023-06-22T03:07:58;98400.02;;;19.29;82.22
62057;BME280;48016;50.284;18.860;2023-06-22T03:10:24;98406.88;;;19.30;82.25
62057;BME280;48016;50.284;18.860;2023-06-22T03:12:50;98408.15;;;19.32;82.32
62057;BME280;48016;50.284;18.860;2023-06-22T03:15:16;98403.92;;;19.37;82.36
62057;BME280;48016;50.284;18.860;2023-06-22T03:17:42;98409.35;;;19.40;82.24
62057;BME280;48016;50.284;18.860;2023-06-22T03:20:09;98412.64;;;19.45;82.39
62057;BME280;48016;50.284;18.860;2023-06-22T03:22:37;98420.01;;;19.51;82.32
62057;BME280;48016;50.284;18.860;2023-06-22T03:25:03;98422.56;;;19.56;82.13
62057;BME280;48016;50.284;18.860;2023-06-22T03:27:30;98420.88;;;19.60;82.22
62057;BME280;48016;50.284;18.860;2023-06-22T03:29:57;98411.90;;;19.65;82.07
62057;BME280;48016;50.284;18.860;2023-06-22T03:32:23;98414.02;;;19.71;82.02
62057;BME280;48016;50.284;18.860;2023-06-22T03:34:49;98408.04;;;19.73;82.00
62057;BME280;48016;50.284;18.860;2023-06-22T03:37:15;98404.58;;;19.77;81.96
62057;BME280;48016;50.284;18.860;2023-06-22T03:39:41;98410.52;;;19.83;81.71
62057;BME280;48016;50.284;18.860;2023-06-22T03:42:07;98416.50;;;19.90;81.61
62057;BME280;48016;50.284;18.860;2023-06-22T03:44:35;98417.64;;;19.97;81.63
62057;BME280;48016;50.284;18.860;2023-06-22T03:47:06;98418.27;;;20.04;81.39
62057;BME280;48016;50.284;18.860;2023-06-22T03:49:33;98421.67;;;20.19;81.28
62057;BME280;48016;50.284;18.860;2023-06-22T03:52:00;98416.16;;;20.45;80.86
62057;BME280;48016;50.284;18.860;2023-06-22T03:54:30;98416.54;;;20.75;80.75
62057;BME280;48016;50.284;18.860;2023-06-22T03:56:57;98411.30;;;21.10;80.15
62057;BME280;48016;50.284;18.860;2023-06-22T03:59:24;98412.20;;;21.42;79.41
62057;BME280;48016;50.284;18.860;2023-06-22T04:01:50;98408.85;;;21.69;78.82
62057;BME280;48016;50.284;18.860;2023-06-22T04:04:19;98413.05;;;22.01;78.24
62057;BME280;48016;50.284;18.860;2023-06-22T04:06:45;98417.70;;;22.35;77.38
62057;BME280;48016;50.284;18.860;2023-06-22T04:09:11;98419.89;;;22.67;76.52
62057;BME280;48016;50.284;18.860;2023-06-22T04:11:37;98421.90;;;22.95;75.63
62057;BME280;48016;50.284;18.860;2023-06-22T04:14:03;98427.80;;;23.23;75.03
62057;BME280;48016;50.284;18.860;2023-06-22T04:16:29;98435.48;;;23.49;74.33
62057;BME280;48016;50.284;18.860;2023-06-22T04:18:55;98440.11;;;23.71;73.55
62057;BME280;48016;50.284;18.860;2023-06-22T04:21:21;98435.59;;;23.90;72.80
62057;BME280;48016;50.284;18.860;2023-06-22T04:23:47;98431.90;;;24.08;71.68
62057;BME280;48016;50.284;18.860;2023-06-22T04:26:13;98426.86;;;24.26;71.16
62057;BME280;48016;50.284;18.860;2023-06-22T04:28:40;98424.10;;;24.47;70.82
62057;BME280;48016;50.284;18.860;2023-06-22T04:31:06;98426.70;;;24.66;70.03
62057;BME280;48016;50.284;18.860;2023-06-22T04:33:33;98429.88;;;24.79;69.50
62057;BME280;48016;50.284;18.860;2023-06-22T04:35:59;98428.73;;;24.95;69.27
62057;BME280;48016;50.284;18.860;2023-06-22T04:38:27;98428.55;;;25.14;68.76
62057;BME280;48016;50.284;18.860;2023-06-22T04:40:53;98430.84;;;25.39;68.38
62057;BME280;48016;50.284;18.860;2023-06-22T04:43:19;98435.38;;;25.60;67.57
62057;BME280;48016;50.284;18.860;2023-06-22T04:45:45;98442.22;;;25.82;66.95
62057;BME280;48016;50.284;18.860;2023-06-22T04:48:11;98448.09;;;26.08;66.20
62057;BME280;48016;50.284;18.860;2023-06-22T04:50:42;98452.59;;;26.37;65.53
62057;BME280;48016;50.284;18.860;2023-06-22T04:53:08;98449.99;;;26.62;64.73
62057;BME280;48016;50.284;18.860;2023-06-22T04:55:39;98447.29;;;26.91;63.98
62057;BME280;48016;50.284;18.860;2023-06-22T04:58:07;98447.77;;;27.21;63.58
62057;BME280;48016;50.284;18.860;2023-06-22T05:00:33;98445.77;;;27.48;62.53
62057;BME280;48016;50.284;18.860;2023-06-22T05:03:01;98449.19;;;27.63;61.23
62057;BME280;48016;50.284;18.860;2023-06-22T05:05:29;98451.88;;;27.67;61.04
62057;BME280;48016;50.284;18.860;2023-06-22T05:07:56;98450.11;;;27.80;60.37
62057;BME280;48016;50.284;18.860;2023-06-22T05:10:25;98446.19;;;27.89;60.13
62057;BME280;48016;50.284;18.860;2023-06-22T05:12:51;98451.11;;;28.07;58.80
62057;BME280;48016;50.284;18.860;2023-06-22T05:15:17;98451.55;;;28.00;58.51
62057;BME280;48016;50.284;18.860;2023-06-22T05:17:45;98453.73;;;27.86;59.36
62057;BME280;48016;50.284;18.860;2023-06-22T05:20:12;98456.61;;;27.73;59.33
62057;BME280;48016;50.284;18.860;2023-06-22T05:22:41;98460.27;;;27.47;58.93
62057;BME280;48016;50.284;18.860;2023-06-22T05:25:10;98460.38;;;27.14;59.50
62057;BME280;48016;50.284;18.860;2023-06-22T05:27:37;98459.64;;;26.90;60.12
62057;BME280;48016;50.284;18.860;2023-06-22T05:30:06;98456.97;;;26.81;60.60
62057;BME280;48016;50.284;18.860;2023-06-22T05:32:33;98463.57;;;26.92;60.90
62057;BME280;48016;50.284;18.860;2023-06-22T05:34:59;98468.45;;;26.97;60.65
62057;BME280;48016;50.284;18.860;2023-06-22T05:37:25;98470.44;;;26.91;60.50
62057;BME280;48016;50.284;18.860;2023-06-22T05:39:51;98472.95;;;26.80;60.38
62057;BME280;48016;50.284;18.860;2023-06-22T05:42:17;98476.27;;;26.67;60.25
62057;BME280;48016;50.284;18.860;2023-06-22T05:44:43;98474.19;;;26.51;60.64
62057;BME280;48016;50.284;18.860;2023-06-22T05:47:09;98475.70;;;26.54;60.54
62057;BME280;48016;50.284;18.860;2023-06-22T05:49:35;98475.33;;;26.49;60.38
62057;BME280;48016;50.284;18.860;2023-06-22T05:52:01;98478.02;;;26.30;60.55
62057;BME280;48016;50.284;18.860;2023-06-22T05:54:27;98472.73;;;26.15;60.52
62057;BME280;48016;50.284;18.860;2023-06-22T05:56:53;98473.11;;;26.06;60.81
62057;BME280;48016;50.284;18.860;2023-06-22T05:59:19;98475.33;;;25.92;60.57
62057;BME280;48016;50.284;18.860;2023-06-22T06:01:45;98479.27;;;25.73;61.01
62057;BME280;48016;50.284;18.860;2023-06-22T06:04:18;98479.24;;;25.66;61.40
62057;BME280;48016;50.284;18.860;2023-06-22T06:06:45;98478.55;;;25.70;61.09
62057;BME280;48016;50.284;18.860;2023-06-22T06:09:15;98472.15;;;25.62;61.44
62057;BME280;48016;50.284;18.860;2023-06-22T06:11:41;98476.85;;;25.61;61.75
62057;BME280;48016;50.284;18.860;2023-06-22T06:14:08;98481.64;;;25.88;61.22
62057;BME280;48016;50.284;18.860;2023-06-22T06:16:34;98485.92;;;26.17;60.63
62057;BME280;48016;50.284;18.860;2023-06-22T06:19:00;98489.89;;;26.29;60.39
62057;BME280;48016;50.284;18.860;2023-06-22T06:21:25;98498.73;;;26.54;59.42
62057;BME280;48016;50.284;18.860;2023-06-22T06:23:51;98499.96;;;26.68;58.89
62057;BME280;48016;50.284;18.860;2023-06-22T06:26:18;98502.31;;;26.95;58.84
62057;BME280;48016;50.284;18.860;2023-06-22T06:28:54;98502.85;;;27.30;58.25
62057;BME280;48016;50.284;18.860;2023-06-22T06:31:20;98502.96;;;27.66;57.93
62057;BME280;48016;50.284;18.860;2023-06-22T06:33:46;98496.07;;;27.99;56.89
62057;BME280;48016;50.284;18.860;2023-06-22T06:36:12;98499.04;;;28.21;55.21
62057;BME280;48016;50.284;18.860;2023-06-22T06:38:38;98497.82;;;28.19;53.90
62057;BME280;48016;50.284;18.860;2023-06-22T06:41:04;98494.08;;;28.19;54.27
62057;BME280;48016;50.284;18.860;2023-06-22T06:43:30;98495.20;;;28.32;54.00
62057;BME280;48016;50.284;18.860;2023-06-22T06:45:56;98495.61;;;28.53;53.46
62057;BME280;48016;50.284;18.860;2023-06-22T06:48:22;98494.02;;;28.57;51.86
62057;BME280;48016;50.284;18.860;2023-06-22T06:50:47;98496.31;;;28.47;51.43
62057;BME280;48016;50.284;18.860;2023-06-22T06:53:13;98497.91;;;28.48;52.07
62057;BME280;48016;50.284;18.860;2023-06-22T06:55:39;98498.48;;;28.63;51.37
62057;BME280;48016;50.284;18.860;2023-06-22T06:58:05;98493.59;;;28.63;50.80
62057;BME280;48016;50.284;18.860;2023-06-22T07:00:33;98493.45;;;28.52;50.58
62057;BME280;48016;50.284;18.860;2023-06-22T07:02:59;98495.64;;;28.54;50.85
62057;BME280;48016;50.284;18.860;2023-06-22T07:05:25;98498.80;;;28.71;50.47
62057;BME280;48016;50.284;18.860;2023-06-22T07:07:51;98497.36;;;28.94;49.58
62057;BME280;48016;50.284;18.860;2023-06-22T07:10:19;98496.80;;;28.94;48.62
62057;BME280;48016;50.284;18.860;2023-06-22T07:12:44;98497.80;;;28.81;48.80
62057;BME280;48016;50.284;18.860;2023-06-22T07:15:11;98500.57;;;28.95;49.52
62057;BME280;48016;50.284;18.860;2023-06-22T07:17:38;98502.07;;;29.29;49.31
62057;BME280;48016;50.284;18.860;2023-06-22T07:20:07;98497.79;;;29.57;48.53
62057;BME280;48016;50.284;18.860;2023-06-22T07:22:38;98498.14;;;29.81;48.26
62057;BME280;48016;50.284;18.860;2023-06-22T07:25:05;98496.64;;;30.08;47.62
62057;BME280;48016;50.284;18.860;2023-06-22T07:27:39;98500.71;;;30.27;47.35
62057;BME280;48016;50.284;18.860;2023-06-22T07:30:08;98497.95;;;30.44;47.15
62057;BME280;48016;50.284;18.860;2023-06-22T07:32:35;98497.23;;;30.60;46.64
62057;BME280;48016;50.284;18.860;2023-06-22T07:35:02;98496.36;;;30.70;45.74
62057;BME280;48016;50.284;18.860;2023-06-22T07:37:28;98498.19;;;30.61;45.62
62057;BME280;48016;50.284;18.860;2023-06-22T07:39:55;98496.22;;;30.47;45.97
62057;BME280;48016;50.284;18.860;2023-06-22T07:42:27;98497.20;;;30.42;45.82
62057;BME280;48016;50.284;18.860;2023-06-22T07:44:53;98496.17;;;30.50;46.23
62057;BME280;48016;50.284;18.860;2023-06-22T07:47:20;98503.12;;;30.69;46.04
62057;BME280;48016;50.284;18.860;2023-06-22T07:49:50;98510.10;;;30.56;45.03
62057;BME280;48016;50.284;18.860;2023-06-22T07:52:17;98513.13;;;30.28;45.27
62057;BME280;48016;50.284;18.860;2023-06-22T07:54:42;98512.26;;;30.16;45.52
62057;BME280;48016;50.284;18.860;2023-06-22T07:57:08;98512.22;;;30.24;45.85
62057;BME280;48016;50.284;18.860;2023-06-22T07:59:34;98514.55;;;30.26;45.18
62057;BME280;48016;50.284;18.860;2023-06-22T08:02:00;98513.04;;;30.20;45.28
62057;BME280;48016;50.284;18.860;2023-06-22T08:04:28;98513.36;;;30.13;45.05
62057;BME280;48016;50.284;18.860;2023-06-22T08:06:56;98515.70;;;30.10;44.95
62057;BME280;48016;50.284;18.860;2023-06-22T08:09:22;98517.56;;;30.19;45.17
62057;BME280;48016;50.284;18.860;2023-06-22T08:11:48;98518.56;;;30.28;44.76
62057;BME280;48016;50.284;18.860;2023-06-22T08:14:14;98521.23;;;30.38;44.20
62057;BME280;48016;50.284;18.860;2023-06-22T08:16:41;98525.58;;;30.42;44.22
62057;BME280;48016;50.284;18.860;2023-06-22T08:19:07;98523.63;;;30.39;44.22
62057;BME280;48016;50.284;18.860;2023-06-22T08:21:33;98522.30;;;30.42;44.56
62057;BME280;48016;50.284;18.860;2023-06-22T08:23:59;98526.31;;;30.52;44.62
62057;BME280;48016;50.284;18.860;2023-06-22T08:26:25;98536.05;;;30.59;44.06
62057;BME280;48016;50.284;18.860;2023-06-22T08:28:51;98540.71;;;30.63;43.74
62057;BME280;48016;50.284;18.860;2023-06-22T08:31:18;98541.05;;;30.67;42.86
62057;BME280;48016;50.284;18.860;2023-06-22T08:33:44;98541.29;;;30.66;43.18
62057;BME280;48016;50.284;18.860;2023-06-22T08:36:11;98539.00;;;30.68;43.35
62057;BME280;48016;50.284;18.860;2023-06-22T08:38:39;98541.62;;;30.74;43.12
62057;BME280;48016;50.284;18.860;2023-06-22T08:41:04;98540.06;;;30.85;42.99
62057;BME280;48016;50.284;18.860;2023-06-22T08:43:30;98537.70;;;30.97;42.98
62057;BME280;48016;50.284;18.860;2023-06-22T08:45:56;98539.23;;;31.09;42.65
62057;BME280;48016;50.284;18.860;2023-06-22T08:48:22;98537.08;;;31.08;42.29
62057;BME280;48016;50.284;18.860;2023-06-22T08:50:48;98534.01;;;31.13;42.82
62057;BME280;48016;50.284;18.860;2023-06-22T08:53:14;98538.79;;;31.13;42.44
62057;BME280;48016;50.284;18.860;2023-06-22T08:55:40;98540.46;;;31.23;43.04
62057;BME280;48016;50.284;18.860;2023-06-22T08:58:06;98539.28;;;31.24;41.94
62057;BME280;48016;50.284;18.860;2023-06-22T09:00:32;98530.91;;;31.15;41.97
62057;BME280;48016;50.284;18.860;2023-06-22T09:03:00;98531.69;;;31.22;42.60
62057;BME280;48016;50.284;18.860;2023-06-22T09:05:26;98536.02;;;31.26;41.88
62057;BME280;48016;50.284;18.860;2023-06-22T09:07:52;98538.35;;;31.17;41.49
62057;BME280;48016;50.284;18.860;2023-06-22T09:10:20;98540.22;;;31.12;41.56
62057;BME280;48016;50.284;18.860;2023-06-22T09:12:46;98539.08;;;31.09;41.35
62057;BME280;48016;50.284;18.860;2023-06-22T09:15:12;98535.00;;;30.98;41.23
62057;BME280;48016;50.284;18.860;2023-06-22T09:17:38;98529.96;;;30.96;41.43
62057;BME280;48016;50.284;18.860;2023-06-22T09:20:04;98526.34;;;31.00;41.36
62057;BME280;48016;50.284;18.860;2023-06-22T09:22:31;98519.31;;;30.92;41.54
62057;BME280;48016;50.284;18.860;2023-06-22T09:24:58;98515.72;;;30.91;41.83
62057;BME280;48016;50.284;18.860;2023-06-22T09:27:25;98514.46;;;30.85;41.74
62057;BME280;48016;50.284;18.860;2023-06-22T09:29:51;98506.89;;;30.69;41.57
62057;BME280;48016;50.284;18.860;2023-06-22T09:32:17;98500.77;;;30.47;41.84
62057;BME280;48016;50.284;18.860;2023-06-22T09:34:43;98501.71;;;30.26;41.82
62057;BME280;48016;50.284;18.860;2023-06-22T09:37:09;98495.63;;;30.09;42.47
62057;BME280;48016;50.284;18.860;2023-06-22T09:39:34;98492.76;;;30.10;42.55
62057;BME280;48016;50.284;18.860;2023-06-22T09:42:01;98496.61;;;30.19;42.82
62057;BME280;48016;50.284;18.860;2023-06-22T09:44:27;98500.50;;;30.23;42.29
62057;BME280;48016;50.284;18.860;2023-06-22T09:46:53;98501.98;;;30.27;42.51
62057;BME280;48016;50.284;18.860;2023-06-22T09:49:19;98499.41;;;30.26;41.80
62057;BME280;48016;50.284;18.860;2023-06-22T09:51:45;98490.11;;;30.09;41.72
62057;BME280;48016;50.284;18.860;2023-06-22T09:54:11;98483.01;;;30.07;42.38
62057;BME280;48016;50.284;18.860;2023-06-22T09:56:37;98480.02;;;30.10;42.31
62057;BME280;48016;50.284;18.860;2023-06-22T09:59:03;98480.80;;;30.15;42.39
62057;BME280;48016;50.284;18.860;2023-06-22T10:01:29;98478.94;;;30.24;42.52
62057;BME280;48016;50.284;18.860;2023-06-22T10:03:55;98480.98;;;30.30;42.05
62057;BME280;48016;50.284;18.860;2023-06-22T10:06:22;98483.76;;;30.10;41.76
62057;BME280;48016;50.284;18.860;2023-06-22T10:08:50;98479.46;;;29.96;43.10
62057;BME280;48016;50.284;18.860;2023-06-22T10:11:16;98475.30;;;30.01;43.48
62057;BME280;48016;50.284;18.860;2023-06-22T10:13:41;98472.13;;;30.02;42.55
62057;BME280;48016;50.284;18.860;2023-06-22T10:16:07;98474.27;;;30.01;42.88
62057;BME280;48016;50.284;18.860;2023-06-22T10:18:33;98477.45;;;30.01;42.29
62057;BME280;48016;50.284;18.860;2023-06-22T10:21:00;98479.39;;;30.04;42.35
62057;BME280;48016;50.284;18.860;2023-06-22T10:23:26;98476.73;;;30.08;42.29
62057;BME280;48016;50.284;18.860;2023-06-22T10:25:52;98476.55;;;30.13;42.61
62057;BME280;48016;50.284;18.860;2023-06-22T10:28:17;98477.55;;;30.23;42.21
62057;BME280;48016;50.284;18.860;2023-06-22T10:30:43;98474.16;;;30.25;41.36
62057;BME280;48016;50.284;18.860;2023-06-22T10:33:10;98470.58;;;30.25;41.73
62057;BME280;48016;50.284;18.860;2023-06-22T10:35:37;98471.14;;;30.33;41.94
62057;BME280;48016;50.284;18.860;2023-06-22T10:38:04;98475.38;;;30.44;41.74
62057;BME280;48016;50.284;18.860;2023-06-22T10:40:30;98474.13;;;30.53;41.88
62057;BME280;48016;50.284;18.860;2023-06-22T10:42:56;98474.19;;;30.60;41.54
62057;BME280;48016;50.284;18.860;2023-06-22T10:45:21;98473.82;;;30.63;41.26
62057;BME280;48016;50.284;18.860;2023-06-22T10:47:47;98470.53;;;30.70;41.13
62057;BME280;48016;50.284;18.860;2023-06-22T10:50:14;98468.25;;;30.74;41.37
62057;BME280;48016;50.284;18.860;2023-06-22T10:52:40;98468.42;;;30.81;41.79
62057;BME280;48016;50.284;18.860;2023-06-22T10:55:08;98465.77;;;30.79;41.22
62057;BME280;48016;50.284;18.860;2023-06-22T10:57:34;98468.80;;;30.79;41.77
62057;BME280;48016;50.284;18.860;2023-06-22T11:00:00;98462.18;;;30.89;41.57
62057;BME280;48016;50.284;18.860;2023-06-22T11:02:26;98460.41;;;30.96;41.47
62057;BME280;48016;50.284;18.860;2023-06-22T11:04:54;98457.11;;;30.93;41.45
62057;BME280;48016;50.284;18.860;2023-06-22T11:07:19;98456.30;;;30.90;41.37
62057;BME280;48016;50.284;18.860;2023-06-22T11:09:45;98452.41;;;30.83;41.25
62057;BME280;48016;50.284;18.860;2023-06-22T11:12:11;98450.52;;;30.78;41.14
62057;BME280;48016;50.284;18.860;2023-06-22T11:14:39;98450.46;;;30.72;41.02
62057;BME280;48016;50.284;18.860;2023-06-22T11:17:05;98452.04;;;30.61;40.52
62057;BME280;48016;50.284;18.860;2023-06-22T11:19:31;98448.16;;;30.47;40.44
62057;BME280;48016;50.284;18.860;2023-06-22T11:21:56;98447.61;;;30.32;40.14
62057;BME280;48016;50.284;18.860;2023-06-22T11:24:22;98444.07;;;30.28;40.35
62057;BME280;48016;50.284;18.860;2023-06-22T11:26:48;98441.67;;;30.27;39.80
62057;BME280;48016;50.284;18.860;2023-06-22T11:29:14;98437.73;;;30.18;40.12
62057;BME280;48016;50.284;18.860;2023-06-22T11:31:40;98434.88;;;30.12;41.07
62057;BME280;48016;50.284;18.860;2023-06-22T11:34:08;98433.77;;;30.12;41.72
62057;BME280;48016;50.284;18.860;2023-06-22T11:36:34;98432.10;;;30.12;40.98
62057;BME280;48016;50.284;18.860;2023-06-22T11:39:01;98437.75;;;30.20;40.26
62057;BME280;48016;50.284;18.860;2023-06-22T11:41:28;98433.36;;;30.32;39.57
62057;BME280;48016;50.284;18.860;2023-06-22T11:43:53;98427.42;;;30.44;40.17
62057;BME280;48016;50.284;18.860;2023-06-22T11:46:19;98433.41;;;30.55;40.12
62057;BME280;48016;50.284;18.860;2023-06-22T11:48:46;98428.42;;;30.58;39.74
62057;BME280;48016;50.284;18.860;2023-06-22T11:51:11;98425.39;;;30.56;39.82
62057;BME280;48016;50.284;18.860;2023-06-22T11:53:37;98423.11;;;30.60;39.72
62057;BME280;48016;50.284;18.860;2023-06-22T11:56:03;98423.49;;;30.70;39.37
62057;BME280;48016;50.284;18.860;2023-06-22T11:58:29;98418.88;;;30.79;39.05
62057;BME280;48016;50.284;18.860;2023-06-22T12:00:55;98415.20;;;30.88;39.23
62057;BME280;48016;50.284;18.860;2023-06-22T12:03:21;98408.81;;;30.97;38.92
62057;BME280;48016;50.284;18.860;2023-06-22T12:05:49;98406.24;;;31.06;38.64
62057;BME280;48016;50.284;18.860;2023-06-22T12:08:16;98404.50;;;31.07;37.87
62057;BME280;48016;50.284;18.860;2023-06-22T12:10:42;98402.09;;;31.04;37.96
62057;BME280;48016;50.284;18.860;2023-06-22T12:13:07;98397.94;;;31.05;37.98
62057;BME280;48016;50.284;18.860;2023-06-22T12:15:33;98398.05;;;31.12;38.02
62057;BME280;48016;50.284;18.860;2023-06-22T12:17:59;98399.52;;;31.15;37.83
62057;BME280;48016;50.284;18.860;2023-06-22T12:20:26;98394.95;;;31.15;37.77
62057;BME280;48016;50.284;18.860;2023-06-22T12:22:52;98388.68;;;31.17;38.09
62057;BME280;48016;50.284;18.860;2023-06-22T12:25:19;98392.29;;;31.21;38.27
62057;BME280;48016;50.284;18.860;2023-06-22T12:27:45;98389.98;;;31.23;38.30
62057;BME280;48016;50.284;18.860;2023-06-22T12:30:11;98384.74;;;31.28;38.31
62057;BME280;48016;50.284;18.860;2023-06-22T12:32:37;98381.16;;;31.30;37.62
62057;BME280;48016;50.284;18.860;2023-06-22T12:35:03;98381.23;;;31.25;37.38
62057;BME280;48016;50.284;18.860;2023-06-22T12:37:29;98380.17;;;31.24;37.95
62057;BME280;48016;50.284;18.860;2023-06-22T12:39:57;98373.86;;;31.20;37.76
62057;BME280;48016;50.284;18.860;2023-06-22T12:42:23;98369.29;;;31.15;37.08
62057;BME280;48016;50.284;18.860;2023-06-22T12:44:49;98366.95;;;31.12;37.45
62057;BME280;48016;50.284;18.860;2023-06-22T12:47:14;98363.11;;;31.10;37.71
62057;BME280;48016;50.284;18.860;2023-06-22T12:49:40;98364.70;;;31.11;37.76
62057;BME280;48016;50.284;18.860;2023-06-22T12:52:09;98358.35;;;31.14;37.79